createdAt,value
2022-10-26T00:01:17.852Z,81.10
2022-10-26T00:04:06.543Z,81.60
2022-10-26T00:06:55.080Z,82.10
2022-10-26T00:09:43.728Z,81.80
2022-10-26T00:12:33.628Z,82.10
2022-10-26T00:15:22.759Z,80.80
2022-10-26T00:18:11.396Z,78.40
2022-10-26T00:21:05.271Z,76.50
2022-10-26T00:23:53.761Z,75.80
2022-10-26T00:26:42.616Z,75.60
2022-10-26T00:29:32.579Z,74.90
2022-10-26T00:32:21.144Z,75.00
2022-10-26T00:35:21.299Z,74.30
2022-10-26T00:38:17.492Z,75.20
2022-10-26T00:41:06.055Z,75.60
2022-10-26T00:43:55.666Z,76.90
2022-10-26T00:46:45.719Z,78.40
2022-10-26T00:49:34.305Z,79.20
2022-10-26T00:52:23.646Z,79.10
2022-10-26T00:55:12.606Z,77.90
2022-10-26T00:58:03.489Z,76.30
2022-10-26T01:00:52.843Z,76.20
2022-10-26T01:03:43.688Z,76.60
2022-10-26T01:06:35.228Z,78.20
2022-10-26T01:09:24.743Z,79.40
2022-10-26T01:12:13.315Z,81.70
2022-10-26T01:15:02.205Z,81.30
2022-10-26T01:17:57.656Z,81.30
2022-10-26T01:21:31.040Z,80.60
2022-10-26T01:24:46.063Z,80.20
2022-10-26T01:27:36.988Z,79.30
2022-10-26T01:30:32.759Z,77.60
2022-10-26T01:33:30.937Z,77.40
2022-10-26T01:36:28.869Z,78.80
2022-10-26T01:39:24.654Z,79.90
2022-10-26T01:42:16.029Z,80.30
2022-10-26T01:45:08.624Z,79.60
2022-10-26T01:48:00.558Z,80.40
2022-10-26T01:50:53.888Z,82.70
2022-10-26T01:53:47.228Z,84.40
2022-10-26T01:56:40.076Z,86.30
2022-10-26T01:59:50.836Z,87.70
2022-10-26T02:03:07.602Z,88.40
2022-10-26T02:06:07.739Z,89.30
2022-10-26T02:09:03.776Z,90.90
2022-10-26T02:11:54.629Z,92.40
2022-10-26T02:14:50.472Z,94.40
2022-10-26T02:17:47.561Z,96.40
2022-10-26T02:20:41.193Z,93.30
2022-10-26T02:23:33.222Z,94.00
2022-10-26T02:26:25.425Z,94.10
2022-10-26T02:29:18.551Z,94.70
2022-10-26T02:32:09.447Z,95.00
2022-10-26T02:35:00.930Z,95.70
2022-10-26T02:37:53.028Z,98.60
2022-10-26T02:40:42.729Z,99.20
2022-10-26T02:43:34.444Z,99.00
2022-10-26T02:46:26.915Z,98.80
2022-10-26T02:49:15.553Z,99.40
2022-10-26T02:52:10.448Z,99.60
2022-10-26T02:55:05.357Z,99.90
2022-10-26T02:57:57.125Z,99.90
2022-10-26T03:00:47.225Z,99.90
2022-10-26T03:03:35.952Z,99.90
2022-10-26T03:06:25.033Z,99.90
2022-10-26T03:09:13.620Z,99.90
2022-10-26T03:12:03.560Z,99.90
2022-10-26T03:14:52.117Z,99.90
2022-10-26T03:17:40.776Z,99.90
2022-10-26T03:20:29.597Z,99.90
2022-10-26T03:23:18.176Z,99.90
2022-10-26T03:26:06.980Z,99.90
2022-10-26T03:28:56.935Z,99.90
2022-10-26T03:31:45.478Z,99.90
2022-10-26T03:34:34.133Z,97.20
2022-10-26T03:37:22.674Z,96.40
2022-10-26T03:40:12.315Z,94.40
2022-10-26T03:43:00.928Z,90.60
2022-10-26T03:45:50.906Z,88.60
2022-10-26T03:48:39.554Z,83.10
2022-10-26T03:51:28.159Z,78.10
2022-10-26T03:54:16.708Z,75.60
2022-10-26T03:57:05.292Z,73.90
2022-10-26T03:59:53.842Z,73.60
2022-10-26T04:02:46.934Z,73.90
2022-10-26T04:05:35.765Z,73.80
2022-10-26T04:08:24.343Z,77.10
2022-10-26T04:11:12.937Z,76.00
2022-10-26T04:14:01.683Z,76.20
2022-10-26T04:16:50.278Z,79.30
2022-10-26T04:19:40.236Z,82.00
2022-10-26T04:22:28.794Z,84.70
2022-10-26T04:25:17.525Z,85.80
2022-10-26T04:28:07.220Z,87.30
2022-10-26T04:30:55.772Z,87.50
2022-10-26T04:33:44.363Z,85.80
2022-10-26T04:36:34.605Z,85.30
2022-10-26T04:39:23.158Z,82.70
2022-10-26T04:42:11.670Z,80.30
2022-10-26T04:45:00.244Z,80.40
2022-10-26T04:47:48.844Z,80.70
2022-10-26T04:50:37.816Z,80.60
2022-10-26T04:53:28.258Z,81.10
2022-10-26T04:56:16.835Z,81.10
2022-10-26T04:59:05.685Z,81.40
2022-10-26T05:01:54.246Z,82.00
2022-10-26T05:04:42.857Z,82.20
2022-10-26T05:07:31.397Z,81.20
2022-10-26T05:10:21.349Z,82.10
2022-10-26T05:13:11.021Z,82.70
2022-10-26T05:15:59.584Z,84.00
2022-10-26T05:18:50.488Z,84.70
2022-10-26T05:21:39.347Z,85.40
2022-10-26T05:24:27.973Z,85.10
2022-10-26T05:27:17.930Z,84.00
2022-10-26T05:33:03.114Z,81.60
2022-10-26T05:35:55.512Z,83.60
2022-10-26T05:38:44.035Z,82.60
2022-10-26T05:41:32.666Z,82.90
2022-10-26T05:44:22.684Z,83.60
2022-10-26T05:47:11.216Z,81.10
2022-10-26T05:49:59.792Z,80.10
2022-10-26T05:52:49.382Z,79.50
2022-10-26T05:55:38.799Z,80.40
2022-10-26T05:58:27.915Z,81.60
2022-10-26T06:01:27.189Z,82.10
2022-10-26T06:04:27.451Z,82.00
2022-10-26T06:07:20.097Z,81.90
2022-10-26T06:10:12.178Z,82.80
2022-10-26T06:13:01.260Z,83.70
2022-10-26T06:16:01.857Z,83.90
2022-10-26T06:19:04.182Z,85.50
2022-10-26T06:22:04.498Z,85.90
2022-10-26T06:25:01.654Z,85.30
2022-10-26T06:27:56.773Z,86.30
2022-10-26T06:30:45.452Z,86.90
2022-10-26T06:33:34.087Z,87.10
2022-10-26T06:36:27.143Z,87.50
2022-10-26T06:39:17.318Z,87.50
2022-10-26T06:42:06.578Z,87.10
2022-10-26T06:44:55.799Z,88.00
2022-10-26T06:47:50.917Z,87.50
2022-10-26T06:50:45.246Z,87.50
2022-10-26T06:56:28.452Z,86.00
2022-10-26T06:59:23.404Z,86.70
2022-10-26T07:02:14.757Z,86.00
2022-10-26T07:05:03.445Z,87.30
2022-10-26T07:07:52.294Z,89.80
2022-10-26T07:10:42.933Z,91.60
2022-10-26T07:13:31.453Z,91.40
2022-10-26T07:16:21.190Z,90.90
2022-10-26T07:19:09.717Z,88.10
2022-10-26T07:21:59.426Z,86.40
2022-10-26T07:24:50.388Z,86.70
2022-10-26T07:27:40.325Z,86.10
2022-10-26T07:30:29.252Z,85.30
2022-10-26T07:33:17.773Z,85.10
2022-10-26T07:36:08.683Z,84.60
2022-10-26T07:38:57.232Z,84.80
2022-10-26T07:41:47.034Z,82.30
2022-10-26T07:44:37.142Z,80.90
2022-10-26T07:47:25.725Z,82.70
2022-10-26T07:50:14.776Z,82.70
2022-10-26T07:53:03.356Z,83.10
2022-10-26T07:55:56.135Z,85.40
2022-10-26T07:58:44.675Z,85.00
2022-10-26T08:01:34.803Z,86.20
2022-10-26T08:04:23.401Z,86.00
2022-10-26T08:07:11.976Z,86.60
2022-10-26T08:10:00.879Z,86.40
2022-10-26T08:12:49.485Z,87.20
2022-10-26T08:15:38.102Z,87.20
2022-10-26T08:18:28.964Z,85.70
2022-10-26T08:21:21.824Z,86.40
2022-10-26T08:24:18.919Z,85.40
2022-10-26T08:27:08.177Z,84.00
2022-10-26T08:29:56.803Z,83.70
2022-10-26T08:32:45.502Z,85.10
2022-10-26T08:35:35.927Z,84.40
2022-10-26T08:38:24.730Z,85.50
2022-10-26T08:41:15.364Z,82.80
2022-10-26T08:44:13.202Z,83.10
2022-10-26T08:47:07.879Z,85.20
2022-10-26T08:50:03.881Z,82.10
2022-10-26T08:53:03.718Z,78.20
2022-10-26T08:55:55.945Z,71.70
2022-10-26T08:58:50.124Z,68.40
2022-10-26T09:01:38.835Z,66.50
2022-10-26T09:04:29.240Z,69.20
2022-10-26T09:07:32.348Z,64.70
2022-10-26T09:10:34.343Z,62.70
2022-10-26T09:13:29.389Z,59.60
2022-10-26T09:16:27.806Z,53.50
2022-10-26T09:19:32.725Z,55.90
2022-10-26T09:22:26.040Z,50.20
2022-10-26T09:25:19.833Z,51.10
2022-10-26T09:28:18.127Z,50.70
2022-10-26T09:31:07.112Z,46.70
2022-10-26T09:33:56.900Z,46.70
2022-10-26T09:36:45.506Z,45.20
2022-10-26T09:39:41.222Z,51.20
2022-10-26T09:42:38.594Z,51.50
2022-10-26T09:45:31.868Z,53.30
2022-10-26T09:48:28.561Z,54.50
2022-10-26T09:51:17.802Z,55.80
2022-10-26T09:54:14.584Z,55.20
2022-10-26T09:57:03.888Z,55.60
2022-10-26T09:59:55.715Z,49.50
2022-10-26T10:02:48.939Z,49.60
2022-10-26T10:05:53.266Z,48.00
2022-10-26T10:08:41.915Z,49.50
2022-10-26T10:11:40.402Z,44.50
2022-10-26T10:14:33.456Z,49.30
2022-10-26T10:17:25.358Z,49.30
2022-10-26T10:20:22.266Z,50.20
2022-10-26T10:23:30.203Z,42.40
2022-10-26T10:26:18.752Z,44.10
2022-10-26T10:29:17.532Z,41.00
2022-10-26T10:32:06.835Z,41.70
2022-10-26T10:34:56.849Z,36.20
2022-10-26T10:37:46.996Z,35.30
2022-10-26T10:40:36.075Z,32.00
2022-10-26T10:43:25.108Z,35.90
2022-10-26T10:46:20.417Z,36.90
2022-10-26T10:49:19.654Z,36.30
2022-10-26T10:52:08.201Z,37.60
2022-10-26T10:55:07.785Z,40.90
2022-10-26T10:58:09.388Z,40.90
2022-10-26T11:00:58.845Z,40.90
2022-10-26T11:03:59.397Z,37.10
2022-10-26T11:06:49.765Z,35.70
2022-10-26T11:09:43.125Z,33.70
2022-10-26T11:12:37.887Z,31.70
2022-10-26T11:15:29.404Z,28.10
2022-10-26T11:18:21.002Z,29.40
2022-10-26T11:21:21.155Z,33.70
2022-10-26T11:24:18.108Z,31.10
2022-10-26T11:27:16.639Z,31.20
2022-10-26T11:30:14.640Z,36.60
2022-10-26T11:33:07.566Z,34.50
2022-10-26T11:36:03.235Z,34.20
2022-10-26T11:38:57.725Z,23.00
2022-10-26T11:41:51.832Z,16.00
2022-10-26T11:44:47.093Z,17.80
2022-10-26T11:47:45.142Z,19.70
2022-10-26T11:50:38.798Z,16.30
2022-10-26T11:53:31.739Z,15.90
2022-10-26T11:56:26.990Z,18.40
2022-10-26T11:59:21.184Z,21.50
2022-10-26T12:02:16.681Z,16.50
2022-10-26T12:05:12.550Z,14.70
2022-10-26T12:08:07.201Z,16.40
2022-10-26T12:11:03.732Z,17.70
2022-10-26T12:13:57.758Z,18.90
2022-10-26T12:16:53.296Z,22.00
2022-10-26T12:19:47.590Z,24.00
2022-10-26T12:22:40.673Z,21.00
2022-10-26T12:25:29.265Z,21.60
2022-10-26T12:28:42.050Z,25.30
2022-10-26T12:31:44.721Z,23.50
2022-10-26T12:35:02.026Z,27.10
2022-10-26T12:37:52.319Z,26.90
2022-10-26T12:40:45.110Z,24.50
2022-10-26T12:43:40.305Z,26.20
2022-10-26T12:46:46.205Z,23.20
2022-10-26T12:50:05.602Z,24.40
2022-10-26T12:53:02.213Z,20.70
2022-10-26T12:56:19.134Z,21.00
2022-10-26T12:59:23.912Z,21.30
2022-10-26T13:02:36.894Z,20.10
2022-10-26T13:05:42.640Z,23.00
2022-10-26T13:08:41.038Z,19.50
2022-10-26T13:11:31.963Z,18.00
2022-10-26T13:14:25.673Z,11.80
2022-10-26T13:17:28.713Z,9.70
2022-10-26T13:20:32.859Z,6.50
2022-10-26T13:23:26.928Z,6.00
2022-10-26T13:26:18.456Z,6.60
2022-10-26T13:29:11.845Z,5.20
2022-10-26T13:32:01.159Z,3.80
2022-10-26T13:34:49.979Z,4.10
2022-10-26T13:37:46.268Z,4.60
2022-10-26T13:40:39.135Z,6.30
2022-10-26T13:43:29.712Z,9.70
2022-10-26T13:46:27.279Z,12.30
2022-10-26T13:49:23.209Z,13.80
2022-10-26T13:52:18.113Z,16.00
2022-10-26T13:55:14.514Z,17.40
2022-10-26T13:58:12.586Z,17.90
2022-10-26T14:01:14.752Z,18.40
2022-10-26T14:04:18.129Z,18.90
2022-10-26T14:07:07.165Z,18.20
2022-10-26T14:09:58.272Z,20.10
2022-10-26T14:12:46.985Z,21.70
2022-10-26T14:15:37.131Z,21.90
2022-10-26T14:18:30.670Z,23.20
2022-10-26T14:21:22.736Z,22.70
2022-10-26T14:24:31.506Z,20.60
2022-10-26T14:27:33.914Z,22.50
2022-10-26T14:30:24.618Z,23.90
2022-10-26T14:33:20.642Z,23.20
2022-10-26T14:36:10.832Z,23.20
2022-10-26T14:39:03.081Z,24.20
2022-10-26T14:41:54.271Z,24.70
2022-10-26T14:44:43.058Z,24.00
2022-10-26T14:47:33.653Z,27.00
2022-10-26T14:50:24.444Z,26.60
2022-10-26T14:53:17.353Z,26.20
2022-10-26T14:56:17.767Z,24.80
2022-10-26T14:59:13.441Z,26.90
2022-10-26T15:02:12.283Z,27.90
2022-10-26T15:05:02.858Z,28.90
2022-10-26T15:07:52.383Z,30.00
2022-10-26T15:10:50.460Z,29.10
2022-10-26T15:13:44.138Z,30.10
2022-10-26T15:16:36.127Z,32.50
2022-10-26T15:19:25.546Z,35.10
2022-10-26T15:22:24.602Z,38.20
2022-10-26T15:25:20.967Z,39.60
2022-10-26T15:28:23.224Z,39.10
2022-10-26T15:31:31.317Z,40.70
2022-10-26T15:34:24.956Z,42.00
2022-10-26T15:37:13.595Z,40.30
2022-10-26T15:40:02.429Z,43.20
2022-10-26T15:42:53.105Z,45.70
2022-10-26T15:45:49.140Z,47.50
2022-10-26T15:48:39.594Z,48.80
2022-10-26T15:51:28.644Z,51.40
2022-10-26T15:54:17.630Z,53.50
2022-10-26T16:00:00.343Z,55.10
2022-10-26T16:02:50.340Z,57.10
2022-10-26T16:05:38.937Z,57.10
2022-10-26T16:08:30.547Z,57.50
2022-10-26T16:11:19.362Z,58.90
2022-10-26T16:14:08.096Z,60.10
2022-10-26T16:16:58.789Z,59.60
2022-10-26T16:19:49.273Z,59.90
2022-10-26T16:22:38.563Z,59.70
2022-10-26T16:25:27.716Z,59.50
2022-10-26T16:28:18.282Z,59.90
2022-10-26T16:31:09.452Z,62.40
2022-10-26T16:34:00.349Z,62.00
2022-10-26T16:36:54.213Z,62.70
2022-10-26T16:39:42.764Z,63.60
2022-10-26T16:42:32.584Z,63.60
2022-10-26T16:45:21.156Z,63.30
2022-10-26T16:48:14.790Z,63.20
2022-10-26T16:51:07.306Z,63.40
2022-10-26T16:53:58.331Z,63.90
2022-10-26T16:56:46.926Z,64.60
2022-10-26T16:59:35.707Z,66.00
2022-10-26T17:02:24.461Z,66.70
2022-10-26T17:05:13.075Z,66.90
2022-10-26T17:08:01.701Z,66.80
2022-10-26T17:10:51.763Z,66.90
2022-10-26T17:13:41.344Z,67.70
2022-10-26T17:16:30.022Z,68.60
2022-10-26T17:19:18.595Z,68.90
2022-10-26T17:22:08.764Z,69.40
2022-10-26T17:24:57.574Z,70.20
2022-10-26T17:27:47.641Z,71.00
2022-10-26T17:30:36.372Z,72.20
2022-10-26T17:33:24.954Z,73.70
2022-10-26T17:36:16.710Z,74.40
2022-10-26T17:39:05.423Z,75.00
2022-10-26T17:41:54.096Z,76.50
2022-10-26T17:44:45.910Z,77.30
2022-10-26T17:47:34.545Z,78.40
2022-10-26T17:50:23.125Z,79.00
2022-10-26T17:53:11.712Z,79.40
2022-10-26T17:56:04.317Z,79.70
2022-10-26T17:58:53.793Z,80.70
2022-10-26T18:01:44.860Z,81.30
2022-10-26T18:04:33.475Z,81.40
2022-10-26T18:07:22.067Z,79.90
2022-10-26T18:10:26.305Z,78.20
2022-10-26T18:13:20.157Z,78.50
2022-10-26T18:16:10.746Z,77.50
2022-10-26T18:19:02.499Z,77.90
2022-10-26T18:21:51.113Z,79.00
2022-10-26T18:24:39.741Z,78.50
2022-10-26T18:27:28.441Z,79.10
2022-10-26T18:30:17.113Z,79.40
2022-10-26T18:33:05.808Z,79.20
2022-10-26T18:35:55.700Z,79.90
2022-10-26T18:38:44.715Z,79.40
2022-10-26T18:41:33.255Z,79.60
2022-10-26T18:44:22.792Z,79.90
2022-10-26T18:47:11.428Z,80.10
2022-10-26T18:50:00.375Z,80.50
2022-10-26T18:52:51.403Z,80.60
2022-10-26T18:55:41.289Z,80.50
2022-10-26T18:58:33.167Z,82.00
2022-10-26T19:01:23.338Z,83.70
2022-10-26T19:04:12.176Z,83.80
2022-10-26T19:07:01.614Z,84.90
2022-10-26T19:09:51.760Z,85.00
2022-10-26T19:12:40.398Z,83.00
2022-10-26T19:15:28.951Z,81.00
2022-10-26T19:18:17.549Z,82.00
2022-10-26T19:21:07.934Z,83.20
2022-10-26T19:23:57.845Z,82.60
2022-10-26T19:26:48.852Z,82.50
2022-10-26T19:29:37.607Z,82.50
2022-10-26T19:32:28.887Z,82.80
2022-10-26T19:35:18.574Z,82.50
2022-10-26T19:38:07.198Z,82.80
2022-10-26T19:40:59.375Z,83.60
2022-10-26T19:43:49.461Z,84.00
2022-10-26T19:46:38.168Z,84.00
2022-10-26T19:49:26.826Z,83.90
2022-10-26T19:52:15.510Z,85.10
2022-10-26T19:55:04.272Z,86.10
2022-10-26T19:57:52.934Z,85.00
2022-10-26T20:00:45.113Z,85.10
2022-10-26T20:03:34.389Z,85.90
2022-10-26T20:06:22.924Z,85.60
2022-10-26T20:09:11.699Z,85.50
2022-10-26T20:12:00.432Z,85.30
2022-10-26T20:14:49.002Z,87.40
2022-10-26T20:17:39.018Z,87.10
2022-10-26T20:20:27.631Z,87.90
2022-10-26T20:23:16.431Z,87.20
2022-10-26T20:28:54.503Z,87.50
2022-10-26T20:31:43.091Z,87.50
2022-10-26T20:34:33.075Z,89.30
2022-10-26T20:37:22.194Z,90.00
2022-10-26T20:40:12.658Z,90.20
2022-10-26T20:43:01.833Z,89.90
2022-10-26T20:45:50.993Z,90.30
2022-10-26T20:48:40.083Z,91.40
2022-10-26T20:51:47.625Z,91.70
2022-10-26T20:54:51.832Z,91.80
2022-10-26T20:57:42.546Z,90.00
2022-10-26T21:00:33.525Z,90.50
2022-10-26T21:03:22.097Z,90.80
2022-10-26T21:06:12.651Z,91.10
2022-10-26T21:09:02.636Z,91.10
2022-10-26T21:11:52.830Z,90.80
2022-10-26T21:14:41.678Z,91.00
2022-10-26T21:17:30.301Z,90.60
2022-10-26T21:20:18.906Z,90.70
2022-10-26T21:23:07.521Z,90.30
2022-10-26T21:25:57.667Z,90.70
2022-10-26T21:28:46.946Z,91.20
2022-10-26T21:31:35.589Z,90.90
2022-10-26T21:34:24.286Z,90.50
2022-10-26T21:37:12.864Z,89.90
2022-10-26T21:40:01.477Z,90.50
2022-10-26T21:42:55.473Z,91.60
2022-10-26T21:45:44.034Z,93.00
2022-10-26T21:48:33.968Z,93.60
2022-10-26T21:51:22.725Z,94.40
2022-10-26T21:54:11.557Z,94.50
2022-10-26T21:57:00.274Z,95.50
2022-10-26T21:59:50.276Z,95.40
2022-10-26T22:02:38.855Z,95.00
2022-10-26T22:05:29.657Z,94.70
2022-10-26T22:08:18.245Z,94.80
2022-10-26T22:11:09.483Z,94.70
2022-10-26T22:13:59.317Z,94.70
2022-10-26T22:16:49.295Z,94.60
2022-10-26T22:19:37.928Z,95.50
2022-10-26T22:22:26.464Z,96.00
2022-10-26T22:25:15.215Z,96.00
2022-10-26T22:28:03.849Z,95.90
2022-10-26T22:30:52.406Z,96.90
2022-10-26T22:33:42.537Z,97.90
2022-10-26T22:36:31.225Z,98.10
2022-10-26T22:39:19.770Z,98.40
2022-10-26T22:42:08.349Z,98.50
2022-10-26T22:44:56.905Z,98.00
2022-10-26T22:47:45.446Z,98.00
2022-10-26T22:50:35.443Z,98.20
2022-10-26T22:53:24.128Z,97.90
2022-10-26T22:56:14.797Z,98.60
2022-10-26T22:59:03.513Z,97.90
2022-10-26T23:01:52.191Z,97.90
2022-10-26T23:04:40.874Z,98.50
2022-10-26T23:07:32.155Z,98.40
2022-10-26T23:10:20.752Z,99.20
2022-10-26T23:13:09.334Z,99.90
2022-10-26T23:15:58.361Z,99.90
2022-10-26T23:18:46.963Z,99.70
2022-10-26T23:21:35.574Z,99.90
2022-10-26T23:24:25.623Z,99.60
2022-10-26T23:27:14.156Z,99.90
2022-10-26T23:30:02.787Z,97.10
2022-10-26T23:32:51.541Z,95.90
2022-10-26T23:35:41.428Z,93.30
2022-10-26T23:38:30.012Z,93.30
2022-10-26T23:41:20.032Z,93.40
2022-10-26T23:44:08.604Z,93.00
2022-10-26T23:46:57.229Z,93.70
2022-10-26T23:49:45.832Z,93.50
2022-10-26T23:52:34.404Z,94.60
2022-10-26T23:55:22.978Z,96.80
2022-10-26T23:58:13.339Z,97.20
